Alton, Texas
Current Conditions -  °F | °C
As of 1:53 PM on Sunday 25 Jan 2015 (Local Time) from KMFE Reporting Station
Clear Clear  
Wind Chill: 67°   Ceiling: Unl
Heat Index: 67°   Visibility: 10mi
Dew Point: 44°   Wind: 5mph
Humidity: 44%   Direction: 300°WNW
Pressure: 30.12"   Gusts: NA
Location:  26.2155°N, 98.325°W
Report Text: KMFE 251953Z 30004KT 10SM CLR 19/07 A3012 RMK AO2 SLP200 T01940067
Loading
Personal Weather Stations






























Interactive Weather Map New forecast layout! Learn more

10-Day Weather Forecast

Advertisements
Track Severe Weather on mobile